createdAt,value
2022-12-04T00:02:10.903Z,15.30
2022-12-04T00:04:37.341Z,15.75
2022-12-04T00:07:03.889Z,14.70
2022-12-04T00:09:30.298Z,14.77
2022-12-04T00:11:56.590Z,14.43
2022-12-04T00:14:23.024Z,14.55
2022-12-04T00:16:50.367Z,14.43
2022-12-04T00:19:17.018Z,13.90
2022-12-04T00:21:45.095Z,14.27
2022-12-04T00:24:11.507Z,14.60
2022-12-04T00:26:37.775Z,13.68
2022-12-04T00:29:04.377Z,14.30
2022-12-04T00:31:31.090Z,14.63
2022-12-04T00:33:58.552Z,14.25
2022-12-04T00:36:25.912Z,13.73
2022-12-04T00:38:52.567Z,13.95
2022-12-04T00:41:20.470Z,14.02
2022-12-04T00:43:46.997Z,15.05
2022-12-04T00:46:13.508Z,13.77
2022-12-04T00:48:40.147Z,14.23
2022-12-04T00:51:08.404Z,14.43
2022-12-04T00:53:34.781Z,15.10
2022-12-04T00:56:05.383Z,14.43
2022-12-04T00:58:31.734Z,13.73
2022-12-04T01:01:17.055Z,14.95
2022-12-04T01:03:43.475Z,14.95
2022-12-04T01:06:20.932Z,14.18
2022-12-04T01:08:47.600Z,14.98
2022-12-04T01:11:13.972Z,14.65
2022-12-04T01:13:40.296Z,14.40
2022-12-04T01:16:06.640Z,14.68
2022-12-04T01:18:32.985Z,14.60
2022-12-04T01:20:59.339Z,14.73
2022-12-04T01:23:25.707Z,14.82
2022-12-04T01:25:53.226Z,14.63
2022-12-04T01:28:19.638Z,14.27
2022-12-04T01:30:55.585Z,14.20
2022-12-04T01:33:21.954Z,14.02
2022-12-04T01:35:58.839Z,14.95
2022-12-04T01:38:25.594Z,15.18
2022-12-04T01:40:52.012Z,14.07
2022-12-04T01:43:18.782Z,14.70
2022-12-04T01:45:54.795Z,14.50
2022-12-04T01:48:27.941Z,14.63
2022-12-04T01:50:57.909Z,14.55
2022-12-04T01:53:24.526Z,13.00
2022-12-04T01:55:50.968Z,14.05
2022-12-04T01:58:20.167Z,14.18
2022-12-04T02:00:51.520Z,15.13
2022-12-04T02:03:18.134Z,13.43
2022-12-04T02:05:44.486Z,14.30
2022-12-04T02:08:11.056Z,13.32
2022-12-04T02:10:57.703Z,14.00
2022-12-04T02:13:41.500Z,14.05
2022-12-04T02:16:11.309Z,13.95
2022-12-04T02:18:46.365Z,13.43
2022-12-04T02:21:26.162Z,14.43
2022-12-04T02:23:55.582Z,13.23
2022-12-04T02:26:32.568Z,13.98
2022-12-04T02:29:17.847Z,14.48
2022-12-04T02:31:49.509Z,14.75
2022-12-04T02:34:25.319Z,13.77
2022-12-04T02:37:01.756Z,13.80
2022-12-04T02:39:34.303Z,14.82
2022-12-04T02:42:04.076Z,14.10
2022-12-04T02:44:39.680Z,12.85
2022-12-04T02:47:09.874Z,13.80
2022-12-04T02:49:45.525Z,14.52
2022-12-04T02:52:13.002Z,14.88
2022-12-04T02:54:41.998Z,14.35
2022-12-04T02:57:11.231Z,14.98
2022-12-04T02:59:39.261Z,14.23
2022-12-04T03:02:17.077Z,14.43
2022-12-04T03:04:45.870Z,14.00
2022-12-04T03:07:17.864Z,14.65
2022-12-04T03:10:04.456Z,13.63
2022-12-04T03:12:38.353Z,14.65
2022-12-04T03:15:07.393Z,13.57
2022-12-04T03:17:36.269Z,13.55
2022-12-04T03:20:08.258Z,12.35
2022-12-04T03:22:36.027Z,14.70
2022-12-04T03:25:03.383Z,14.48
2022-12-04T03:27:29.692Z,13.68
2022-12-04T03:30:02.714Z,14.13
2022-12-04T03:32:47.857Z,14.60
2022-12-04T03:35:25.025Z,13.88
2022-12-04T03:37:57.960Z,14.07
2022-12-04T03:40:43.155Z,9.70
2022-12-04T03:43:31.360Z,15.10
2022-12-04T03:46:12.723Z,12.98
2022-12-04T03:48:59.768Z,12.65
2022-12-04T03:51:29.763Z,13.20
2022-12-04T03:53:58.030Z,14.68
2022-12-04T03:56:29.643Z,15.18
2022-12-04T03:58:58.664Z,13.68
2022-12-04T04:01:27.595Z,13.60
2022-12-04T04:03:55.276Z,14.43
2022-12-04T04:06:32.783Z,13.95
2022-12-04T04:09:01.688Z,14.07
2022-12-04T04:11:31.598Z,13.50
2022-12-04T04:14:22.121Z,14.27
2022-12-04T04:17:11.432Z,13.43
2022-12-04T04:19:57.548Z,14.30
2022-12-04T04:22:43.732Z,13.43
2022-12-04T04:25:12.745Z,13.15
2022-12-04T04:27:39.121Z,14.15
2022-12-04T04:30:06.156Z,14.00
2022-12-04T04:32:39.454Z,13.40
2022-12-04T04:35:19.372Z,14.70
2022-12-04T04:37:51.733Z,13.38
2022-12-04T04:40:28.147Z,13.85
2022-12-04T04:42:59.892Z,13.85
2022-12-04T04:45:29.365Z,15.90
2022-12-04T04:48:02.338Z,14.15
2022-12-04T04:50:29.256Z,14.60
2022-12-04T04:52:58.735Z,14.88
2022-12-04T04:55:25.338Z,14.43
2022-12-04T04:57:51.692Z,15.00
2022-12-04T05:00:20.514Z,14.93
2022-12-04T05:02:48.546Z,14.45
2022-12-04T05:05:14.954Z,14.85
2022-12-04T05:07:41.362Z,14.80
2022-12-04T05:10:08.386Z,14.80
2022-12-04T05:12:34.771Z,14.15
2022-12-04T05:15:01.124Z,14.32
2022-12-04T05:17:27.433Z,13.98
2022-12-04T05:19:54.192Z,14.10
2022-12-04T05:22:22.041Z,13.90
2022-12-04T05:24:48.548Z,15.07
2022-12-04T05:27:14.972Z,14.32
2022-12-04T05:29:41.400Z,14.23
2022-12-04T05:32:07.734Z,14.38
2022-12-04T05:34:34.052Z,14.43
2022-12-04T05:37:00.416Z,14.90
2022-12-04T05:39:26.750Z,13.45
2022-12-04T05:41:53.062Z,14.70
2022-12-04T05:44:19.440Z,14.00
2022-12-04T05:46:45.850Z,14.27
2022-12-04T05:49:12.285Z,14.82
2022-12-04T05:51:38.663Z,14.52
2022-12-04T05:54:05.011Z,14.65
2022-12-04T05:56:31.324Z,13.90
2022-12-04T05:58:57.645Z,13.55
2022-12-04T06:01:24.126Z,14.50
2022-12-04T06:03:50.684Z,13.60
2022-12-04T06:06:21.904Z,14.43
2022-12-04T06:08:49.751Z,13.77
2022-12-04T06:11:26.923Z,13.23
2022-12-04T06:13:53.547Z,12.85
2022-12-04T06:16:21.732Z,13.57
2022-12-04T06:18:52.259Z,12.98
2022-12-04T06:21:18.777Z,12.85
2022-12-04T06:23:45.088Z,13.85
2022-12-04T06:26:11.514Z,14.23
2022-12-04T06:28:37.864Z,13.85
2022-12-04T06:31:05.302Z,12.82
2022-12-04T06:33:31.742Z,13.27
2022-12-04T06:35:58.986Z,12.05
2022-12-04T06:38:25.447Z,12.25
2022-12-04T06:40:51.821Z,11.98
2022-12-04T06:43:18.111Z,11.68
2022-12-04T06:45:44.480Z,10.98
2022-12-04T06:48:10.810Z,10.85
2022-12-04T06:50:37.152Z,10.43
2022-12-04T06:53:08.135Z,10.05
2022-12-04T06:55:34.936Z,9.55
2022-12-04T06:58:01.273Z,10.07
2022-12-04T07:00:27.602Z,9.93
2022-12-04T07:02:53.963Z,9.45
2022-12-04T07:05:20.350Z,9.50
2022-12-04T07:07:46.745Z,10.10
2022-12-04T07:10:13.056Z,9.98
2022-12-04T07:12:39.432Z,10.35
2022-12-04T07:15:06.139Z,9.20
2022-12-04T07:17:32.484Z,9.35
2022-12-04T07:19:58.991Z,8.82
2022-12-04T07:22:26.240Z,10.07
2022-12-04T07:24:52.615Z,9.60
2022-12-04T07:27:18.953Z,9.90
2022-12-04T07:29:45.249Z,9.45
2022-12-04T07:32:11.638Z,9.32
2022-12-04T07:34:38.004Z,9.38
2022-12-04T07:37:04.311Z,8.85
2022-12-04T07:39:30.663Z,9.13
2022-12-04T07:41:57.047Z,9.48
2022-12-04T07:44:23.359Z,8.88
2022-12-04T07:46:49.704Z,8.88
2022-12-04T07:49:16.278Z,8.57
2022-12-04T07:51:42.569Z,8.70
2022-12-04T07:54:09.266Z,8.90
2022-12-04T07:56:35.575Z,8.23
2022-12-04T07:59:02.057Z,9.30
2022-12-04T08:01:28.606Z,9.02
2022-12-04T08:03:56.488Z,9.02
2022-12-04T08:06:23.608Z,9.07
2022-12-04T08:08:50.605Z,9.90
2022-12-04T08:11:19.290Z,8.82
2022-12-04T08:13:45.811Z,9.45
2022-12-04T08:16:12.863Z,10.15
2022-12-04T08:18:39.844Z,9.77
2022-12-04T08:21:07.788Z,10.57
2022-12-04T08:23:34.665Z,10.23
2022-12-04T08:26:01.431Z,10.30
2022-12-04T08:28:27.832Z,10.02
2022-12-04T08:30:54.276Z,10.05
2022-12-04T08:33:21.076Z,10.05
2022-12-04T08:35:47.387Z,10.70
2022-12-04T08:38:13.708Z,10.82
2022-12-04T08:40:40.205Z,11.40
2022-12-04T08:43:06.491Z,10.20
2022-12-04T08:45:32.872Z,9.77
2022-12-04T08:47:59.179Z,9.52
2022-12-04T08:50:25.459Z,10.35
2022-12-04T08:52:51.793Z,12.23
2022-12-04T08:55:18.088Z,10.82
2022-12-04T08:57:44.380Z,10.18
2022-12-04T09:00:12.809Z,10.63
2022-12-04T09:02:39.230Z,10.30
2022-12-04T09:05:05.644Z,9.85
2022-12-04T09:07:32.107Z,10.20
2022-12-04T09:09:58.817Z,10.73
2022-12-04T09:12:25.365Z,10.35
2022-12-04T09:14:51.888Z,10.73
2022-12-04T09:17:18.301Z,9.18
2022-12-04T09:19:44.659Z,10.00
2022-12-04T09:22:11.039Z,9.75
2022-12-04T09:24:37.340Z,9.55
2022-12-04T09:27:03.688Z,9.48
2022-12-04T09:29:30.036Z,10.18
2022-12-04T09:31:56.357Z,10.05
2022-12-04T09:34:22.694Z,10.32
2022-12-04T09:36:49.967Z,9.65
2022-12-04T09:39:16.303Z,8.73
2022-12-04T09:41:50.840Z,10.80
2022-12-04T09:44:29.441Z,10.10
2022-12-04T09:47:00.525Z,10.50
2022-12-04T09:49:38.229Z,10.30
2022-12-04T09:52:09.171Z,9.88
2022-12-04T09:54:39.114Z,9.55
2022-12-04T09:57:14.741Z,10.25
2022-12-04T09:59:41.270Z,9.68
2022-12-04T10:02:10.612Z,9.65
2022-12-04T10:04:36.994Z,9.98
2022-12-04T10:07:22.179Z,9.57
2022-12-04T10:10:02.203Z,9.65
2022-12-04T10:12:47.424Z,9.43
2022-12-04T10:15:13.730Z,9.90
2022-12-04T10:17:43.312Z,9.50
2022-12-04T10:20:09.619Z,9.02
2022-12-04T10:22:35.889Z,9.23
2022-12-04T10:25:06.709Z,10.05
2022-12-04T10:27:39.748Z,10.00
2022-12-04T10:30:38.674Z,10.30
2022-12-04T10:33:19.309Z,10.18
2022-12-04T10:35:47.591Z,11.25
2022-12-04T10:38:34.171Z,10.05
2022-12-04T10:41:05.830Z,10.32
2022-12-04T10:43:40.087Z,9.73
2022-12-04T10:46:08.742Z,9.65
2022-12-04T10:48:37.101Z,9.60
2022-12-04T10:51:03.672Z,9.85
2022-12-04T10:53:31.620Z,10.20
2022-12-04T10:56:07.841Z,9.45
2022-12-04T10:58:34.202Z,10.32
2022-12-04T11:01:02.295Z,10.05
2022-12-04T11:03:29.184Z,9.80
2022-12-04T11:06:00.655Z,9.70
2022-12-04T11:08:31.077Z,10.32
2022-12-04T11:10:59.956Z,10.00
2022-12-04T11:13:26.980Z,10.30
2022-12-04T11:15:56.985Z,11.02
2022-12-04T11:18:31.353Z,10.35
2022-12-04T11:21:00.805Z,10.23
2022-12-04T11:23:29.728Z,9.57
2022-12-04T11:26:03.743Z,9.88
2022-12-04T11:28:47.618Z,10.38
2022-12-04T11:31:18.946Z,10.40
2022-12-04T11:33:57.295Z,10.20
2022-12-04T11:36:31.370Z,9.93
2022-12-04T11:39:06.585Z,8.95
2022-12-04T11:41:33.303Z,9.60
2022-12-04T11:44:00.784Z,9.45
2022-12-04T11:46:29.313Z,9.68
2022-12-04T11:48:55.827Z,9.50
2022-12-04T11:51:40.552Z,9.43
2022-12-04T11:54:12.693Z,9.77
2022-12-04T11:56:42.649Z,9.98
2022-12-04T11:59:11.963Z,9.82
2022-12-04T12:01:56.488Z,10.55
2022-12-04T12:04:24.594Z,10.43
2022-12-04T12:06:59.677Z,9.60
2022-12-04T12:09:30.224Z,9.43
2022-12-04T12:12:01.507Z,9.13
2022-12-04T12:14:46.253Z,8.95
2022-12-04T12:17:15.931Z,9.55
2022-12-04T12:20:04.396Z,9.95
2022-12-04T12:22:39.912Z,10.20
2022-12-04T12:25:06.198Z,10.93
2022-12-04T12:27:39.276Z,10.13
2022-12-04T12:30:08.925Z,8.88
2022-12-04T12:32:47.406Z,9.35
2022-12-04T12:35:27.102Z,10.18
2022-12-04T12:37:54.838Z,12.65
2022-12-04T12:40:27.368Z,10.32
2022-12-04T12:42:58.439Z,11.10
2022-12-04T12:45:44.472Z,10.48
2022-12-04T12:48:25.395Z,10.82
2022-12-04T12:51:14.974Z,11.13
2022-12-04T12:53:42.892Z,10.70
2022-12-04T12:56:13.178Z,10.27
2022-12-04T12:58:49.678Z,10.63
2022-12-04T13:01:22.125Z,9.35
2022-12-04T13:04:23.997Z,10.18
2022-12-04T13:06:56.732Z,10.38
2022-12-04T13:09:29.775Z,10.75
2022-12-04T13:12:01.533Z,9.93
2022-12-04T13:14:27.841Z,10.38
2022-12-04T13:16:57.500Z,10.55
2022-12-04T13:19:43.293Z,10.25
2022-12-04T13:22:28.518Z,10.45
2022-12-04T13:24:57.958Z,10.52
2022-12-04T13:27:33.371Z,10.57
2022-12-04T13:30:18.447Z,10.50
2022-12-04T13:32:47.925Z,9.70
2022-12-04T13:35:14.280Z,11.20
2022-12-04T13:37:46.552Z,10.13
2022-12-04T13:40:28.282Z,9.60
2022-12-04T13:43:12.602Z,9.95
2022-12-04T13:45:39.376Z,10.57
2022-12-04T13:48:06.066Z,10.40
2022-12-04T13:50:32.374Z,9.63
2022-12-04T13:52:58.875Z,10.23
2022-12-04T13:55:25.301Z,9.88
2022-12-04T13:57:56.121Z,10.13
2022-12-04T14:00:33.231Z,10.55
2022-12-04T14:03:01.174Z,10.07
2022-12-04T14:05:41.431Z,10.68
2022-12-04T14:08:21.610Z,9.98
2022-12-04T14:11:05.940Z,10.30
2022-12-04T14:13:56.108Z,10.10
2022-12-04T14:16:25.803Z,10.70
2022-12-04T14:18:59.306Z,9.80
2022-12-04T14:21:25.796Z,8.63
2022-12-04T14:23:53.181Z,11.10
2022-12-04T14:26:37.286Z,11.07
2022-12-04T14:29:30.001Z,11.00
2022-12-04T14:31:58.929Z,10.52
2022-12-04T14:34:31.720Z,10.88
2022-12-04T14:37:00.537Z,10.83
2022-12-04T14:39:33.038Z,11.48
2022-12-04T14:42:13.711Z,10.93
2022-12-04T14:44:40.298Z,10.48
2022-12-04T14:47:29.315Z,10.88
2022-12-04T14:49:58.655Z,10.55
2022-12-04T14:52:31.335Z,10.85
2022-12-04T14:55:05.865Z,11.15
2022-12-04T14:57:35.320Z,11.52
2022-12-04T15:00:02.273Z,10.93
2022-12-04T15:02:34.285Z,11.40
2022-12-04T15:05:02.096Z,11.40
2022-12-04T15:07:30.007Z,11.40
2022-12-04T15:10:16.162Z,12.32
2022-12-04T15:12:52.884Z,11.40
2022-12-04T15:15:24.930Z,11.65
2022-12-04T15:17:58.426Z,12.35
2022-12-04T15:20:24.834Z,12.18
2022-12-04T15:22:51.251Z,12.45
2022-12-04T15:25:19.460Z,12.00
2022-12-04T15:27:47.546Z,11.52
2022-12-04T15:30:35.346Z,11.45
2022-12-04T15:33:01.799Z,10.98
2022-12-04T15:35:30.889Z,11.57
2022-12-04T15:37:57.536Z,11.40
2022-12-04T15:40:25.712Z,11.80
2022-12-04T15:42:52.422Z,11.50
2022-12-04T15:45:18.680Z,12.02
2022-12-04T15:47:44.936Z,12.35
2022-12-04T15:50:17.413Z,12.27
2022-12-04T15:53:06.464Z,11.52
2022-12-04T15:55:34.332Z,12.85
2022-12-04T15:58:08.901Z,11.50
2022-12-04T16:00:39.098Z,12.63
2022-12-04T16:03:23.099Z,13.82
2022-12-04T16:08:28.956Z,11.38
2022-12-04T16:10:56.774Z,12.50
2022-12-04T16:13:27.871Z,13.65
2022-12-04T16:15:55.568Z,12.05
2022-12-04T16:18:21.912Z,11.07
2022-12-04T16:20:48.269Z,10.35
2022-12-04T16:23:15.800Z,11.88
2022-12-04T16:25:42.175Z,14.48
2022-12-04T16:28:08.493Z,12.38
2022-12-04T16:30:35.592Z,12.35
2022-12-04T16:33:01.936Z,13.60
2022-12-04T16:35:30.996Z,13.68
2022-12-04T16:37:57.264Z,14.32
2022-12-04T16:40:23.593Z,13.85
2022-12-04T16:42:49.903Z,14.90
2022-12-04T16:45:24.855Z,14.63
2022-12-04T16:47:51.788Z,13.63
2022-12-04T16:50:18.168Z,15.10
2022-12-04T16:52:44.628Z,17.30
2022-12-04T16:55:21.539Z,15.90
2022-12-04T16:57:47.983Z,15.90
2022-12-04T17:00:15.077Z,15.80
2022-12-04T17:02:41.608Z,14.75
2022-12-04T17:05:08.487Z,19.60
2022-12-04T17:07:34.846Z,20.48
2022-12-04T17:10:01.139Z,21.33
2022-12-04T17:12:27.678Z,18.25
2022-12-04T17:14:54.081Z,16.70
2022-12-04T17:17:20.537Z,15.85
2022-12-04T17:19:46.856Z,16.10
2022-12-04T17:22:14.166Z,15.95
2022-12-04T17:24:47.182Z,17.23
2022-12-04T17:27:15.565Z,19.98
2022-12-04T17:29:41.901Z,23.00
2022-12-04T17:32:08.257Z,24.48
2022-12-04T17:34:34.595Z,25.83
2022-12-04T17:37:00.968Z,23.85
2022-12-04T17:39:27.282Z,22.52
2022-12-04T17:41:53.665Z,25.23
2022-12-04T17:44:19.989Z,28.02
2022-12-04T17:46:46.322Z,25.33
2022-12-04T17:49:12.668Z,23.73
2022-12-04T17:51:39.280Z,21.63
2022-12-04T17:54:05.784Z,20.70
2022-12-04T17:56:32.448Z,19.83
2022-12-04T17:58:58.796Z,20.35
2022-12-04T18:01:26.490Z,20.55
2022-12-04T18:03:57.143Z,19.40
2022-12-04T18:06:23.471Z,19.77
2022-12-04T18:08:50.597Z,21.10
2022-12-04T18:11:21.168Z,20.40
2022-12-04T18:13:48.232Z,20.70
2022-12-04T18:16:14.628Z,21.85
2022-12-04T18:18:41.191Z,21.23
2022-12-04T18:21:11.172Z,21.52
2022-12-04T18:23:40.023Z,21.65
2022-12-04T18:26:06.935Z,20.52
2022-12-04T18:28:34.039Z,19.48
2022-12-04T18:31:03.924Z,19.23
2022-12-04T18:33:31.068Z,21.85
2022-12-04T18:35:57.773Z,21.48
2022-12-04T18:38:24.700Z,20.23
2022-12-04T18:40:51.610Z,18.15
2022-12-04T18:43:18.247Z,16.52
2022-12-04T18:45:44.895Z,17.10
2022-12-04T18:48:12.014Z,16.40
2022-12-04T18:50:38.726Z,16.90
2022-12-04T18:53:05.045Z,16.75
2022-12-04T18:55:34.580Z,16.08
2022-12-04T18:58:00.858Z,17.60
2022-12-04T19:00:27.128Z,17.17
2022-12-04T19:02:53.456Z,18.67
2022-12-04T19:05:19.773Z,20.13
2022-12-04T19:07:48.321Z,20.75
2022-12-04T19:10:14.623Z,20.85
2022-12-04T19:12:41.138Z,21.75
2022-12-04T19:15:07.813Z,21.35
2022-12-04T19:17:34.267Z,21.65
2022-12-04T19:20:00.767Z,22.38
2022-12-04T19:22:28.674Z,22.80
2022-12-04T19:24:55.060Z,23.00
2022-12-04T19:27:21.409Z,22.27
2022-12-04T19:29:47.885Z,25.60
2022-12-04T19:32:14.244Z,24.33
2022-12-04T19:34:40.565Z,21.70
2022-12-04T19:37:07.493Z,21.70
2022-12-04T19:39:33.909Z,22.77
2022-12-04T19:42:00.256Z,24.00
2022-12-04T19:44:47.751Z,23.20
2022-12-04T19:47:12.904Z,26.05
2022-12-04T19:49:39.183Z,23.77
2022-12-04T19:52:06.502Z,25.23
2022-12-04T19:54:32.836Z,26.88
2022-12-04T19:56:59.256Z,24.75
2022-12-04T19:59:25.503Z,25.00
2022-12-04T20:01:51.871Z,25.42
2022-12-04T20:04:18.219Z,23.70
2022-12-04T20:06:45.440Z,23.35
2022-12-04T20:09:13.516Z,23.30
2022-12-04T20:11:40.526Z,23.55
2022-12-04T20:14:07.080Z,23.05
2022-12-04T20:16:34.036Z,23.92
2022-12-04T20:19:01.481Z,25.67
2022-12-04T20:21:32.286Z,26.67
2022-12-04T20:24:00.416Z,25.80
2022-12-04T20:26:28.509Z,26.10
2022-12-04T20:28:55.718Z,24.48
2022-12-04T20:31:23.391Z,25.02
2022-12-04T20:33:50.778Z,24.60
2022-12-04T20:36:18.759Z,24.50
2022-12-04T20:38:45.204Z,24.08
2022-12-04T20:41:16.009Z,23.67
2022-12-04T20:43:42.722Z,24.20
2022-12-04T20:46:19.728Z,22.23
2022-12-04T20:48:49.663Z,23.20
2022-12-04T20:51:17.385Z,22.70
2022-12-04T20:53:43.933Z,22.10
2022-12-04T20:56:10.232Z,22.50
2022-12-04T20:58:36.731Z,22.27
2022-12-04T21:01:07.431Z,22.85
2022-12-04T21:03:33.797Z,22.83
2022-12-04T21:06:00.191Z,21.58
2022-12-04T21:08:45.501Z,22.88
2022-12-04T21:11:11.823Z,21.88
2022-12-04T21:13:56.816Z,22.45
2022-12-04T21:16:23.257Z,22.83
2022-12-04T21:18:49.632Z,21.88
2022-12-04T21:21:16.287Z,22.52
2022-12-04T21:23:42.637Z,21.23
2022-12-04T21:26:08.932Z,23.77
2022-12-04T21:28:35.213Z,23.13
2022-12-04T21:31:05.279Z,22.02
2022-12-04T21:33:34.779Z,22.10
2022-12-04T21:36:08.669Z,22.55
2022-12-04T21:38:35.386Z,21.38
2022-12-04T21:41:02.338Z,22.00
2022-12-04T21:43:29.762Z,21.05
2022-12-04T21:46:05.848Z,22.35
2022-12-04T21:48:35.488Z,22.58
2022-12-04T21:51:05.924Z,21.35
2022-12-04T21:53:32.270Z,22.02
2022-12-04T21:55:58.570Z,21.13
2022-12-04T21:58:25.614Z,20.38
2022-12-04T22:00:52.272Z,20.00
2022-12-04T22:03:18.714Z,19.75
2022-12-04T22:05:45.054Z,18.30
2022-12-04T22:08:12.425Z,18.33
2022-12-04T22:10:47.883Z,18.70
2022-12-04T22:13:14.243Z,18.63
2022-12-04T22:15:41.830Z,18.42
2022-12-04T22:18:08.709Z,19.67
2022-12-04T22:20:37.910Z,20.10
2022-12-04T22:23:04.542Z,18.70
2022-12-04T22:25:31.099Z,18.75
2022-12-04T22:27:57.956Z,18.40
2022-12-04T22:30:25.177Z,18.90
2022-12-04T22:32:51.735Z,18.58
2022-12-04T22:35:18.085Z,19.17
2022-12-04T22:37:44.865Z,18.05
2022-12-04T22:40:11.752Z,18.25
2022-12-04T22:42:38.032Z,18.33
2022-12-04T22:45:04.648Z,17.63
2022-12-04T22:47:31.337Z,18.55
2022-12-04T22:49:57.963Z,17.30
2022-12-04T22:52:24.466Z,20.17
2022-12-04T22:54:51.237Z,19.67
2022-12-04T22:57:17.766Z,19.30
2022-12-04T22:59:44.699Z,19.10
2022-12-04T23:02:10.975Z,18.42
2022-12-04T23:04:37.353Z,19.50
2022-12-04T23:07:03.777Z,20.15
2022-12-04T23:09:30.154Z,19.92
2022-12-04T23:11:56.666Z,19.55
2022-12-04T23:14:23.501Z,21.05
2022-12-04T23:16:50.258Z,20.13
2022-12-04T23:19:17.553Z,19.88
2022-12-04T23:21:44.477Z,20.42
2022-12-04T23:24:11.265Z,19.33
2022-12-04T23:26:39.006Z,18.85
2022-12-04T23:29:23.379Z,17.77
2022-12-04T23:31:51.825Z,17.33
2022-12-04T23:34:18.178Z,17.60
2022-12-04T23:36:44.503Z,17.08
2022-12-04T23:39:10.817Z,16.65
2022-12-04T23:41:37.116Z,17.45
2022-12-04T23:44:03.607Z,18.55
2022-12-04T23:46:32.215Z,17.92
2022-12-04T23:48:59.368Z,18.05
2022-12-04T23:51:26.038Z,17.65
2022-12-04T23:53:52.432Z,17.90
2022-12-04T23:56:20.106Z,18.75
2022-12-04T23:58:47.559Z,18.65
